Time;durP1;ratioP1;P1;durP2;ratioP2;P2;SDS_P1;SDS_P2;PMS_P1;PMS_P2;Temp;Humidity;BMP_temperature;BMP_pressure;BME280_temperature;BME280_humidity;BME280_pressure;Samples;Min_cycle;Max_cycle;Signal;HPM_P1;HPM_P2
2023/09/06 00:01:09;;;;;;;7.90;7.20;;;19.20;99.90;;;;;;5050880;28;20539;-95
2023/09/06 00:03:37;;;;;;;8.57;7.68;;;19.20;99.90;;;;;;5018696;28;20042;-96
2023/09/06 00:06:04;;;;;;;8.32;7.63;;;19.20;99.90;;;;;;5053929;28;20045;-95
2023/09/06 00:08:34;;;;;;;7.05;6.43;;;19.00;99.90;;;;;;5015753;28;20102;-95
2023/09/06 00:11:06;;;;;;;8.85;8.05;;;19.20;99.90;;;;;;5036549;28;20064;-94
2023/09/06 00:13:35;;;;;;;9.77;8.88;;;19.10;99.90;;;;;;5038099;28;20369;-94
2023/09/06 00:16:02;;;;;;;9.23;8.32;;;19.10;99.90;;;;;;5012746;28;20377;-95
2023/09/06 00:18:28;;;;;;;6.70;6.05;;;19.00;99.90;;;;;;5020678;28;20072;-95
2023/09/06 00:20:54;;;;;;;7.50;6.27;;;18.90;99.90;;;;;;5036988;28;20049;-95
2023/09/06 00:23:20;;;;;;;6.03;5.53;;;18.90;99.90;;;;;;5019889;28;20079;-95
2023/09/06 00:25:47;;;;;;;7.23;5.90;;;18.70;99.90;;;;;;5022361;28;20040;-94
2023/09/06 00:28:17;;;;;;;6.17;5.07;;;18.80;99.90;;;;;;5015191;28;20071;-96
2023/09/06 00:30:46;;;;;;;6.70;6.00;;;18.70;99.90;;;;;;5004661;28;21043;-95
2023/09/06 00:33:14;;;;;;;6.78;6.18;;;18.60;99.90;;;;;;5039063;28;20037;-95
2023/09/06 00:35:40;;;;;;;9.38;7.68;;;18.50;99.90;;;;;;5025691;28;20211;-95
2023/09/06 00:38:06;;;;;;;8.77;7.65;;;18.50;99.90;;;;;;5024508;28;20080;-95
2023/09/06 00:40:36;;;;;;;8.73;7.93;;;18.60;99.90;;;;;;5020787;28;20041;-96
2023/09/06 00:43:06;;;;;;;8.23;7.10;;;18.60;99.90;;;;;;5052847;28;20049;-95
2023/09/06 00:45:44;;;;;;;7.15;6.55;;;18.50;99.90;;;;;;5020371;28;20408;-95
2023/09/06 00:48:11;;;;;;;;;;;18.70;99.90;;;;;;5023280;28;20175;-95
2023/09/06 00:50:39;;;;;;;8.30;7.50;;;17.50;99.90;;;;;;5029416;28;20017;-96
2023/09/06 00:53:08;;;;;;;9.40;7.95;;;18.50;99.90;;;;;;5036327;28;20041;-95
2023/09/06 00:55:37;;;;;;;8.85;8.05;;;18.40;99.90;;;;;;5023486;28;20033;-94
2023/09/06 00:58:04;;;;;;;9.55;8.75;;;19.00;99.90;;;;;;5036093;28;20041;-95
2023/09/06 01:00:35;;;;;;;9.10;8.20;;;18.70;99.90;;;;;;5036485;28;20037;-95
2023/09/06 01:03:07;;;;;;;10.30;8.57;;;19.20;99.90;;;;;;5005509;28;20045;-96
2023/09/06 01:05:40;;;;;;;8.70;7.90;;;19.40;99.90;;;;;;5009142;28;20041;-94
2023/09/06 01:08:11;;;;;;;7.45;6.75;;;18.60;99.90;;;;;;5044666;28;20049;-94
2023/09/06 01:10:37;;;;;;;7.28;6.57;;;18.70;99.90;;;;;;5023194;28;20048;-94
2023/09/06 01:13:03;;;;;;;9.05;8.15;;;18.70;99.90;;;;;;5024672;28;20068;-94
2023/09/06 01:15:31;;;;;;;9.90;8.90;;;19.60;99.90;;;;;;5006725;28;20489;-96
2023/09/06 01:18:02;;;;;;;11.65;10.45;;;18.50;99.90;;;;;;5027215;28;20518;-95
2023/09/06 01:20:38;;;;;;;11.20;8.55;;;19.30;99.90;;;;;;5017194;28;20041;-96
2023/09/06 01:23:26;;;;;;;11.40;10.30;;;18.50;99.90;;;;;;5023187;28;20389;-95
2023/09/06 01:25:52;;;;;;;11.13;10.15;;;18.50;99.90;;;;;;5033385;28;20040;-95
2023/09/06 01:28:19;;;;;;;11.02;10.00;;;19.50;99.90;;;;;;5007339;28;20032;-95
2023/09/06 01:30:44;;;;;;;10.60;9.60;;;21.10;99.90;;;;;;5023463;28;20056;-94
2023/09/06 01:33:10;;;;;;;10.60;9.60;;;18.80;99.90;;;;;;5012721;28;20037;-95
2023/09/06 01:35:36;;;;;;;10.63;9.63;;;19.90;99.90;;;;;;5021722;28;20033;-94
2023/09/06 01:38:02;;;;;;;9.77;8.85;;;18.10;99.90;;;;;;5004947;28;20036;-95
2023/09/06 01:40:28;;;;;;;9.25;8.35;;;18.10;99.90;;;;;;5032321;28;20395;-95
2023/09/06 01:42:54;;;;;;;10.50;9.57;;;18.10;99.90;;;;;;5030954;28;20040;-95
2023/09/06 01:45:20;;;;;;;10.18;9.30;;;18.00;99.90;;;;;;5023174;28;20052;-94
2023/09/06 01:47:48;;;;;;;11.43;10.13;;;17.90;99.90;;;;;;5028576;28;20091;-93
2023/09/06 01:50:14;;;;;;;;;;;17.90;99.90;;;;;;5016130;28;20117;-94
2023/09/06 01:52:40;;;;;;;11.18;10.18;;;17.80;99.90;;;;;;5008008;28;19916;-95
2023/09/06 01:55:09;;;;;;;11.02;9.93;;;17.70;99.90;;;;;;5044312;28;20055;-95
2023/09/06 01:57:35;;;;;;;11.18;9.95;;;17.70;99.90;;;;;;5032378;28;20037;-95
2023/09/06 02:00:16;;;;;;;12.07;10.85;;;17.70;99.90;;;;;;5019951;28;20053;-95
2023/09/06 02:02:45;;;;;;;11.68;10.60;;;17.70;99.90;;;;;;5023924;28;20103;-94
2023/09/06 02:05:11;;;;;;;10.52;9.48;;;17.70;99.90;;;;;;5019990;28;20127;-95
2023/09/06 02:07:36;;;;;;;11.85;10.77;;;17.60;99.90;;;;;;5030688;28;20528;-95
2023/09/06 02:10:04;;;;;;;11.35;10.23;;;17.70;99.90;;;;;;5013520;28;20120;-95
2023/09/06 02:12:30;;;;;;;12.52;11.32;;;17.70;99.90;;;;;;5034860;28;20029;-94
2023/09/06 02:14:56;;;;;;;10.98;9.93;;;17.70;99.90;;;;;;5046536;28;20047;-95
2023/09/06 02:17:24;;;;;;;12.00;10.90;;;17.70;99.90;;;;;;5020345;28;20719;-95
2023/09/06 02:19:50;;;;;;;11.52;10.23;;;17.70;99.90;;;;;;5046036;28;20111;-94
2023/09/06 02:22:19;;;;;;;10.63;9.63;;;17.60;99.90;;;;;;5035432;28;20876;-95
2023/09/06 02:24:44;;;;;;;7.93;7.22;;;17.60;99.90;;;;;;5038606;28;20044;-95
2023/09/06 02:27:12;;;;;;;8.02;7.32;;;17.50;99.90;;;;;;5032692;28;20064;-95
2023/09/06 02:30:08;;;;;;;8.35;7.65;;;17.50;99.90;;;;;;5047070;28;20040;-96
2023/09/06 02:32:34;;;;;;;10.48;9.57;;;17.50;99.90;;;;;;5028941;28;20070;-96
2023/09/06 02:35:01;;;;;;;12.98;11.68;;;17.40;99.90;;;;;;5021537;28;20044;-96
2023/09/06 02:37:27;;;;;;;12.48;11.38;;;17.40;99.90;;;;;;5037308;28;20101;-96
2023/09/06 02:39:53;;;;;;;11.80;10.50;;;17.40;99.90;;;;;;5038226;28;20133;-96
2023/09/06 02:42:22;;;;;;;11.13;10.05;;;17.30;99.90;;;;;;5022329;28;20155;-96
2023/09/06 02:44:48;;;;;;;11.95;10.75;;;17.30;99.90;;;;;;5047222;28;20048;-95
2023/09/06 02:47:17;;;;;;;10.93;9.90;;;17.30;99.90;;;;;;5049696;28;20041;-96
2023/09/06 02:49:45;;;;;;;11.82;10.63;;;17.30;99.90;;;;;;5024612;28;20108;-95
2023/09/06 02:52:20;;;;;;;11.45;10.43;;;17.30;99.90;;;;;;5039061;28;20424;-96
2023/09/06 02:54:47;;;;;;;11.20;10.18;;;17.30;99.90;;;;;;5033796;28;20075;-95
2023/09/06 02:57:18;;;;;;;10.10;9.13;;;17.20;99.90;;;;;;5028552;28;20134;-95
2023/09/06 02:59:44;;;;;;;9.88;8.98;;;17.30;99.90;;;;;;5028289;28;20049;-96
2023/09/06 03:02:12;;;;;;;10.25;9.30;;;17.20;99.90;;;;;;5054217;28;20652;-95
2023/09/06 03:04:40;;;;;;;11.00;10.00;;;17.10;99.90;;;;;;5038233;28;20089;-95
2023/09/06 03:07:10;;;;;;;10.13;9.32;;;17.10;99.90;;;;;;5035974;28;20051;-95
2023/09/06 03:09:38;;;;;;;10.23;9.23;;;17.00;99.90;;;;;;5013839;28;20484;-96
2023/09/06 03:12:11;;;;;;;11.50;10.30;;;17.10;99.90;;;;;;5018040;28;20120;-96
2023/09/06 03:14:43;;;;;;;10.35;9.45;;;17.10;99.90;;;;;;5018442;28;20051;-96
2023/09/06 03:17:13;;;;;;;11.00;9.95;;;17.00;99.90;;;;;;5033386;28;20112;-95
2023/09/06 03:19:44;;;;;;;10.52;8.98;;;17.10;99.90;;;;;;5039566;28;20124;-94
2023/09/06 03:22:12;;;;;;;11.48;10.25;;;17.10;99.90;;;;;;5033302;28;20099;-94
2023/09/06 03:24:42;;;;;;;;;;;17.00;99.90;;;;;;5035607;28;20037;-95
2023/09/06 03:27:08;;;;;;;10.35;9.45;;;17.00;99.90;;;;;;5026971;28;20000;-95
2023/09/06 03:29:38;;;;;;;11.43;10.35;;;16.90;99.90;;;;;;5036777;28;20100;-94
2023/09/06 03:32:08;;;;;;;11.10;10.00;;;16.90;99.90;;;;;;5016865;28;20033;-96
2023/09/06 03:34:34;;;;;;;12.00;10.43;;;16.90;99.90;;;;;;5018683;28;20032;-95
2023/09/06 03:37:04;;;;;;;10.95;9.88;;;16.90;99.90;;;;;;4994974;28;20068;-96
2023/09/06 03:39:37;;;;;;;10.25;9.25;;;16.90;99.90;;;;;;5018954;28;20095;-95
2023/09/06 03:42:09;;;;;;;11.48;10.43;;;16.90;99.90;;;;;;5034848;28;20116;-95
2023/09/06 03:44:38;;;;;;;10.85;9.85;;;16.90;99.90;;;;;;5018752;28;20037;-94
2023/09/06 03:47:13;;;;;;;10.63;9.55;;;16.90;99.90;;;;;;5036097;28;20127;-94
2023/09/06 03:49:43;;;;;;;10.95;9.80;;;16.80;99.90;;;;;;5033670;28;20045;-96
2023/09/06 03:52:12;;;;;;;10.18;9.18;;;16.80;99.90;;;;;;5000933;28;20074;-95
2023/09/06 03:54:38;;;;;;;11.77;9.73;;;16.80;99.90;;;;;;5003836;28;20033;-96
2023/09/06 03:57:05;;;;;;;10.88;9.77;;;16.80;99.90;;;;;;5031209;28;20076;-94
2023/09/06 03:59:35;;;;;;;10.27;9.27;;;16.80;99.90;;;;;;5017738;28;20045;-95
2023/09/06 04:02:02;;;;;;;9.55;8.65;;;16.70;99.90;;;;;;5032450;28;20048;-96
2023/09/06 04:04:31;;;;;;;9.02;8.13;;;16.70;99.90;;;;;;5024363;28;20102;-96
2023/09/06 04:06:56;;;;;;;7.53;6.82;;;16.70;99.90;;;;;;5009495;28;20057;-95
2023/09/06 04:09:28;;;;;;;10.25;7.95;;;16.70;99.90;;;;;;5039896;28;20124;-96
2023/09/06 04:11:54;;;;;;;6.25;5.65;;;16.60;99.90;;;;;;5034936;28;20369;-95
2023/09/06 04:14:23;;;;;;;6.60;6.00;;;16.70;99.90;;;;;;5030850;28;20060;-96
2023/09/06 04:16:49;;;;;;;6.82;5.72;;;16.60;99.90;;;;;;5026839;28;20459;-96
2023/09/06 04:19:15;;;;;;;6.82;6.22;;;16.60;99.90;;;;;;5038240;28;20127;-96
2023/09/06 04:21:47;;;;;;;7.25;6.55;;;16.60;99.90;;;;;;5045019;28;20120;-96
2023/09/06 04:24:14;;;;;;;7.30;5.95;;;16.50;99.90;;;;;;5032851;28;20049;-95
2023/09/06 04:26:40;;;;;;;7.43;6.65;;;16.60;99.90;;;;;;5037330;28;20043;-95
2023/09/06 04:29:06;;;;;;;7.55;6.85;;;16.50;99.90;;;;;;5019915;28;20045;-95
2023/09/06 04:31:32;;;;;;;7.13;6.53;;;16.50;99.90;;;;;;5024510;28;20033;-94
2023/09/06 04:34:04;;;;;;;7.18;6.43;;;16.50;99.90;;;;;;5038951;28;20077;-94
2023/09/06 04:36:30;;;;;;;7.38;6.68;;;16.50;99.90;;;;;;5025435;28;20036;-95
2023/09/06 04:38:56;;;;;;;7.13;6.43;;;16.50;99.90;;;;;;5040355;28;20040;-96
2023/09/06 04:41:22;;;;;;;7.45;6.80;;;16.40;99.90;;;;;;5024540;28;20043;-95
2023/09/06 04:43:48;;;;;;;7.72;6.93;;;16.40;99.90;;;;;;5034710;28;20040;-95
2023/09/06 04:46:13;;;;;;;8.15;7.32;;;16.40;99.90;;;;;;5027943;28;20048;-94
2023/09/06 04:48:47;;;;;;;8.65;7.78;;;16.40;99.90;;;;;;5018954;28;20443;-94
2023/09/06 04:51:14;;;;;;;8.05;7.35;;;16.40;99.90;;;;;;5033445;28;20436;-94
2023/09/06 04:53:40;;;;;;;8.70;7.80;;;16.40;99.90;;;;;;5043404;28;20452;-94
2023/09/06 04:56:06;;;;;;;8.48;7.53;;;16.40;99.90;;;;;;5034455;28;20115;-95
2023/09/06 04:58:33;;;;;;;8.13;7.43;;;16.40;99.90;;;;;;5053915;28;20041;-94
2023/09/06 05:01:06;;;;;;;10.63;7.75;;;16.40;99.90;;;;;;5032667;28;20041;-96
2023/09/06 05:03:33;;;;;;;9.00;7.53;;;16.30;99.90;;;;;;5039854;28;20036;-94
2023/09/06 05:06:00;;;;;;;8.70;7.57;;;16.30;99.90;;;;;;5040339;28;20048;-94
2023/09/06 05:08:31;;;;;;;8.60;7.85;;;16.30;99.90;;;;;;5042556;28;20132;-96
2023/09/06 05:10:58;;;;;;;8.85;7.13;;;16.30;99.90;;;;;;5039738;28;20041;-94
2023/09/06 05:13:24;;;;;;;8.88;8.02;;;16.30;99.90;;;;;;5039267;28;20114;-95
2023/09/06 05:15:49;;;;;;;9.88;7.55;;;16.30;99.90;;;;;;5020462;28;20047;-94
2023/09/06 05:18:33;;;;;;;8.38;7.57;;;16.30;99.90;;;;;;5040117;28;20081;-95
2023/09/06 05:21:02;;;;;;;8.52;7.65;;;16.30;99.90;;;;;;5041477;28;20135;-96
2023/09/06 05:23:32;;;;;;;8.43;7.47;;;16.40;99.90;;;;;;5048664;28;20041;-96
2023/09/06 05:26:11;;;;;;;7.95;7.15;;;16.40;99.90;;;;;;5046616;28;20595;-96
2023/09/06 05:28:42;;;;;;;8.55;7.28;;;16.00;99.90;;;;;;5064803;28;20060;-96
2023/09/06 05:31:10;;;;;;;7.88;7.07;;;16.50;99.90;;;;;;5029032;28;20072;-96
2023/09/06 05:33:36;;;;;;;7.93;7.22;;;16.40;99.90;;;;;;5023731;28;20036;-96
2023/09/06 05:36:03;;;;;;;7.97;7.18;;;16.50;99.90;;;;;;5023463;28;20068;-94
2023/09/06 05:38:40;;;;;;;7.30;6.32;;;16.60;99.90;;;;;;5017570;28;20040;-95
2023/09/06 05:41:12;;;;;;;5.93;5.32;;;16.60;99.90;;;;;;5032644;28;20487;-95
2023/09/06 05:43:38;;;;;;;5.95;5.32;;;16.60;99.90;;;;;;5044773;28;20044;-93
2023/09/06 05:46:04;;;;;;;6.45;5.85;;;16.70;99.90;;;;;;5038227;28;20063;-95
2023/09/06 05:49:09;;;;;;;6.45;5.47;;;16.70;99.90;;;;;;5036646;28;20083;-93
2023/09/06 05:51:35;;;;;;;6.55;5.95;;;16.70;99.90;;;;;;5037575;28;20037;-92
2023/09/06 05:54:01;;;;;;;6.80;6.10;;;16.80;99.90;;;;;;5040493;28;20036;-92
2023/09/06 05:56:27;;;;;;;8.15;5.50;;;16.80;99.90;;;;;;5011862;28;20044;-96
2023/09/06 06:01:31;;;;;;;6.38;5.78;;;17.10;99.90;;;;;;5051537;28;20072;-91
2023/09/06 06:03:57;;;;;;;6.65;6.05;;;17.20;99.90;;;;;;4984284;28;20041;-88
2023/09/06 06:06:23;;;;;;;6.63;5.93;;;17.30;99.90;;;;;;4990695;28;20041;-88
2023/09/06 06:08:48;;;;;;;6.32;5.43;;;17.40;99.90;;;;;;4981585;28;20155;-89
2023/09/06 06:11:15;;;;;;;6.78;6.00;;;17.50;99.90;;;;;;5003374;28;20131;-88
2023/09/06 06:13:40;;;;;;;6.78;5.47;;;17.70;99.90;;;;;;4976891;28;20033;-90
2023/09/06 06:16:08;;;;;;;7.05;5.60;;;17.90;99.90;;;;;;4967564;28;20049;-87
2023/09/06 06:18:34;;;;;;;7.22;5.32;;;18.00;99.90;;;;;;5006834;28;20049;-87
2023/09/06 06:20:59;;;;;;;6.43;5.82;;;18.20;99.90;;;;;;4967863;28;20064;-90
2023/09/06 06:23:25;;;;;;;5.82;5.30;;;18.40;99.90;;;;;;4973622;28;20132;-90
2023/09/06 06:25:51;;;;;;;5.53;5.03;;;18.50;99.90;;;;;;4992094;28;20805;-90
2023/09/06 06:28:16;;;;;;;6.82;5.25;;;18.60;99.90;;;;;;4975452;28;20061;-86
2023/09/06 06:30:42;;;;;;;5.43;4.93;;;18.70;99.90;;;;;;4985396;28;20455;-90
2023/09/06 06:33:09;;;;;;;5.22;4.72;;;18.90;99.90;;;;;;4993884;28;20045;-87
2023/09/06 06:35:34;;;;;;;5.97;4.77;;;19.10;99.90;;;;;;4985700;28;20257;-88
2023/09/06 06:38:02;;;;;;;6.32;4.32;;;19.30;99.90;;;;;;4976537;28;20456;-86
2023/09/06 06:40:27;;;;;;;6.25;4.72;;;19.40;99.90;;;;;;4989168;28;20499;-90
2023/09/06 06:42:53;;;;;;;6.28;4.28;;;19.50;99.90;;;;;;4992863;28;20114;-87
2023/09/06 06:45:19;;;;;;;5.28;4.40;;;19.50;99.90;;;;;;5001081;28;20076;-85
2023/09/06 06:47:44;;;;;;;5.05;4.47;;;19.60;99.90;;;;;;4983703;28;20045;-87
2023/09/06 06:50:10;;;;;;;5.47;4.03;;;19.70;99.90;;;;;;4977709;28;20037;-89
2023/09/06 06:52:36;;;;;;;4.85;4.00;;;20.00;99.90;;;;;;4975137;28;20132;-88
2023/09/06 06:55:03;;;;;;;5.30;4.20;;;20.10;99.90;;;;;;5016540;28;20492;-88
2023/09/06 06:57:30;;;;;;;5.47;3.97;;;20.20;99.90;;;;;;4996488;28;20033;-91
2023/09/06 06:59:56;;;;;;;5.03;3.58;;;20.30;99.90;;;;;;4999122;28;20068;-89
2023/09/06 07:02:22;;;;;;;4.40;3.95;;;20.40;99.90;;;;;;4985709;28;20499;-89
2023/09/06 07:04:48;;;;;;;7.32;4.70;;;20.80;99.90;;;;;;5000860;28;20148;-86
2023/09/06 07:07:13;;;;;;;4.45;3.65;;;21.30;99.90;;;;;;5012287;28;20045;-86
2023/09/06 07:09:39;;;;;;;5.38;4.30;;;22.20;99.90;;;;;;4970185;28;20056;-88
2023/09/06 07:12:05;;;;;;;6.75;3.40;;;22.90;99.90;;;;;;4991250;28;20054;-86
2023/09/06 07:14:31;;;;;;;6.90;3.50;;;23.50;99.90;;;;;;4991460;28;20037;-85
2023/09/06 07:16:58;;;;;;;4.43;3.50;;;23.60;99.90;;;;;;4990731;28;20395;-86
2023/09/06 07:19:24;;;;;;;7.18;3.40;;;23.90;99.90;;;;;;5003926;28;20134;-89
2023/09/06 07:21:50;;;;;;;9.13;3.50;;;;;;;;;;4999681;28;20547;-91
2023/09/06 07:24:16;;;;;;;3.95;2.67;;;25.40;99.90;;;;;;4993851;28;20142;-88
2023/09/06 07:26:42;;;;;;;5.00;3.00;;;26.10;99.90;;;;;;4985505;28;20041;-93
2023/09/06 07:29:10;;;;;;;7.07;3.43;;;26.60;99.90;;;;;;5006698;28;20061;-85
2023/09/06 07:31:36;;;;;;;4.93;2.63;;;26.40;99.90;;;;;;5004551;28;20466;-92
2023/09/06 07:34:03;;;;;;;10.82;3.60;;;26.20;99.90;;;;;;4981873;28;20049;-87
2023/09/06 07:36:29;;;;;;;10.55;3.72;;;25.90;99.90;;;;;;4981703;28;20045;-87
2023/09/06 07:38:56;;;;;;;3.90;3.13;;;26.00;99.90;;;;;;4968002;28;20079;-90
2023/09/06 07:41:22;;;;;;;5.82;2.88;;;26.90;99.90;;;;;;5000599;28;20045;-92
2023/09/06 07:43:48;;;;;;;6.23;2.80;;;27.90;99.90;;;;;;4989838;28;20358;-88
2023/09/06 07:46:14;;;;;;;4.67;2.87;;;28.80;99.90;;;;;;4968118;28;20037;-92
2023/09/06 07:48:40;;;;;;;3.25;2.25;;;29.40;99.90;;;;;;4962578;28;20818;-90
2023/09/06 07:51:06;;;;;;;5.20;2.03;;;29.80;99.90;;;;;;4964459;28;20053;-87
2023/09/06 07:53:32;;;;;;;6.35;2.45;;;29.70;99.90;;;;;;5003407;28;20041;-88
2023/09/06 07:55:58;;;;;;;2.45;2.03;;;29.90;99.90;;;;;;4994490;28;20044;-87
2023/09/06 07:58:24;;;;;;;3.53;2.07;;;30.00;99.90;;;;;;4972732;28;20055;-88
2023/09/06 08:00:50;;;;;;;2.50;1.77;;;30.20;99.90;;;;;;4992117;28;20503;-91
2023/09/06 08:03:16;;;;;;;2.72;1.70;;;30.80;99.90;;;;;;5007775;28;20582;-88
2023/09/06 08:05:42;;;;;;;5.30;1.80;;;31.30;99.90;;;;;;4980095;28;20071;-88
2023/09/06 08:08:10;;;;;;;2.92;1.58;;;31.60;99.90;;;;;;4994007;28;20491;-87
2023/09/06 08:10:36;;;;;;;2.55;1.45;;;32.10;99.90;;;;;;4989355;28;20128;-88
2023/09/06 08:13:03;;;;;;;3.03;1.60;;;32.40;99.90;;;;;;4999361;28;20098;-88
2023/09/06 08:15:33;;;;;;;2.75;1.60;;;32.60;99.90;;;;;;4980122;28;20045;-90
2023/09/06 08:17:59;;;;;;;3.60;1.63;;;32.70;99.30;;;;;;4993803;28;20041;-90
2023/09/06 08:20:25;;;;;;;;;;;32.90;98.30;;;;;;5011947;28;20091;-87
2023/09/06 08:22:51;;;;;;;3.35;1.40;;;32.70;96.00;;;;;;5008327;28;19967;-90
2023/09/06 08:25:18;;;;;;;5.78;1.40;;;33.00;97.00;;;;;;4994988;28;20099;-86
2023/09/06 08:27:44;;;;;;;4.30;1.60;;;33.00;95.10;;;;;;4998813;28;20102;-88
2023/09/06 08:30:12;;;;;;;2.78;0.90;;;33.00;94.20;;;;;;5030718;28;20179;-87
2023/09/06 08:32:39;;;;;;;4.57;1.17;;;33.10;93.80;;;;;;5000373;28;20056;-90
2023/09/06 08:35:06;;;;;;;2.45;1.10;;;33.00;93.00;;;;;;4985841;28;20045;-88
2023/09/06 08:37:35;;;;;;;1.83;1.10;;;33.00;92.90;;;;;;5017273;28;20041;-89
2023/09/06 08:40:05;;;;;;;2.85;1.15;;;32.90;92.30;;;;;;5025200;28;20488;-87
2023/09/06 08:42:35;;;;;;;4.20;1.20;;;32.60;91.80;;;;;;4993437;28;20506;-82
2023/09/06 08:45:07;;;;;;;1.40;0.90;;;32.40;91.90;;;;;;5008536;28;20197;-86
2023/09/06 08:47:37;;;;;;;5.28;1.05;;;32.20;92.70;;;;;;5014990;28;20041;-89
2023/09/06 08:50:05;;;;;;;2.33;1.00;;;31.90;92.30;;;;;;4993540;28;20037;-85
2023/09/06 08:52:31;;;;;;;2.83;1.00;;;31.40;92.80;;;;;;4998823;28;20037;-85
2023/09/06 08:54:57;;;;;;;0.98;0.88;;;30.90;93.10;;;;;;4991216;28;20042;-86
2023/09/06 08:57:26;;;;;;;2.38;0.70;;;30.40;93.50;;;;;;5001096;28;20052;-84
2023/09/06 08:59:53;;;;;;;2.38;1.10;;;29.90;94.00;;;;;;4994343;28;20049;-87
2023/09/06 09:02:19;;;;;;;1.70;0.90;;;29.40;94.00;;;;;;4994312;28;20087;-84
2023/09/06 09:04:44;;;;;;;1.15;0.88;;;29.30;95.00;;;;;;4990519;28;20080;-86
2023/09/06 09:07:11;;;;;;;1.75;0.93;;;29.00;95.20;;;;;;4989741;28;20056;-87
2023/09/06 09:10:01;;;;;;;1.58;0.80;;;28.80;95.50;;;;;;4985962;28;20037;-88
2023/09/06 09:12:28;;;;;;;1.98;0.90;;;28.70;95.00;;;;;;5012864;28;20052;-88
2023/09/06 09:14:56;;;;;;;1.92;0.98;;;28.70;96.10;;;;;;4970967;28;20888;-87
2023/09/06 09:17:23;;;;;;;2.88;1.08;;;28.60;96.00;;;;;;4990179;28;20045;-86
2023/09/06 09:19:54;;;;;;;2.13;1.00;;;28.60;96.30;;;;;;4995883;28;20040;-85
2023/09/06 09:22:32;;;;;;;1.63;0.82;;;28.60;95.90;;;;;;5001417;28;20041;-85
2023/09/06 09:25:23;;;;;;;2.45;1.00;;;28.60;95.80;;;;;;5017543;28;20060;-86
2023/09/06 09:27:51;;;;;;;3.05;0.77;;;28.60;96.00;;;;;;5000985;28;20057;-85
2023/09/06 09:30:20;;;;;;;2.53;1.30;;;28.60;96.80;;;;;;4998118;28;20107;-84
2023/09/06 09:32:46;;;;;;;2.80;0.90;;;28.60;96.80;;;;;;5029244;28;20048;-87
2023/09/06 09:35:12;;;;;;;1.95;1.00;;;28.70;97.10;;;;;;4982854;28;20091;-87
2023/09/06 09:37:50;;;;;;;2.17;1.00;;;28.70;96.90;;;;;;5011469;28;20211;-88
2023/09/06 09:40:20;;;;;;;2.58;1.00;;;28.70;96.00;;;;;;5000093;28;20041;-89
2023/09/06 09:42:56;;;;;;;0.85;0.55;;;28.70;96.50;;;;;;4974843;28;20065;-89
2023/09/06 09:45:24;;;;;;;1.30;0.85;;;28.80;96.70;;;;;;5027561;28;20049;-89
2023/09/06 09:47:52;;;;;;;1.52;0.90;;;28.70;96.50;;;;;;4988820;28;20373;-90
2023/09/06 09:50:20;;;;;;;1.50;1.00;;;28.80;96.10;;;;;;5009675;28;20044;-85
2023/09/06 09:52:48;;;;;;;2.30;1.00;;;28.80;95.80;;;;;;4986375;28;20551;-89
2023/09/06 09:55:15;;;;;;;2.67;1.00;;;28.80;95.70;;;;;;5010901;28;20546;-90
2023/09/06 09:57:46;;;;;;;1.55;0.90;;;28.90;96.10;;;;;;5001147;28;20404;-86
2023/09/06 10:00:15;;;;;;;1.83;0.65;;;28.90;95.60;;;;;;5006854;28;20573;-85
2023/09/06 10:02:43;;;;;;;2.33;1.00;;;29.00;96.10;;;;;;5018164;28;20049;-92
2023/09/06 10:05:19;;;;;;;1.83;0.98;;;29.00;95.90;;;;;;4986148;28;20446;-86
2023/09/06 10:07:47;;;;;;;2.37;1.13;;;29.10;96.60;;;;;;5002127;28;20095;-86
2023/09/06 10:10:13;;;;;;;1.80;1.02;;;29.20;96.60;;;;;;5004369;28;20463;-88
2023/09/06 10:12:48;;;;;;;4.75;0.93;;;29.20;95.70;;;;;;5000606;28;20095;-83
2023/09/06 10:15:14;;;;;;;5.28;1.10;;;29.30;95.40;;;;;;4992877;28;20094;-85
2023/09/06 10:17:43;;;;;;;2.00;0.93;;;29.40;95.70;;;;;;5020899;28;20405;-87
2023/09/06 10:20:12;;;;;;;2.65;0.93;;;29.50;95.70;;;;;;4990019;28;20046;-87
2023/09/06 10:22:48;;;;;;;3.17;1.25;;;29.50;95.00;;;;;;4975749;28;20041;-86
2023/09/06 10:25:17;;;;;;;2.42;0.85;;;29.60;93.70;;;;;;5003022;28;20033;-87
2023/09/06 10:27:48;;;;;;;1.77;0.80;;;29.70;93.50;;;;;;4995966;28;20129;-83
2023/09/06 10:30:17;;;;;;;2.35;0.88;;;29.70;94.20;;;;;;5007143;28;20048;-85
2023/09/06 10:32:45;;;;;;;2.55;1.10;;;29.90;94.20;;;;;;4997800;28;20360;-85
2023/09/06 10:35:22;;;;;;;3.50;0.93;;;29.80;93.60;;;;;;4991630;28;20085;-84
2023/09/06 10:38:00;;;;;;;3.22;0.90;;;29.90;93.70;;;;;;4987047;28;20045;-86
2023/09/06 10:40:53;;;;;;;1.30;0.90;;;30.00;93.80;;;;;;5017047;28;20103;-83
2023/09/06 10:43:26;;;;;;;2.28;0.82;;;30.00;92.50;;;;;;5023554;28;20449;-85
2023/09/06 10:46:18;;;;;;;2.03;1.10;;;30.10;93.80;;;;;;5014305;28;20045;-81
2023/09/06 10:49:19;;;;;;;2.15;1.08;;;30.10;91.90;;;;;;5016272;28;20044;-91
2023/09/06 10:51:55;;;;;;;2.67;0.90;;;30.20;93.10;;;;;;4996110;28;20095;-87
2023/09/06 10:54:23;;;;;;;3.63;1.20;;;30.20;92.30;;;;;;4983616;28;20132;-89
2023/09/06 10:56:59;;;;;;;3.45;0.98;;;30.30;92.20;;;;;;5002588;28;20525;-84
2023/09/06 10:59:27;;;;;;;1.23;0.97;;;30.30;91.50;;;;;;4985596;28;20428;-85
2023/09/06 11:02:20;;;;;;;3.05;0.90;;;30.30;92.20;;;;;;5004721;28;20593;-88
2023/09/06 11:04:46;;;;;;;1.38;0.90;;;30.40;92.30;;;;;;5005467;28;20059;-85
2023/09/06 11:07:13;;;;;;;1.65;1.02;;;30.40;92.50;;;;;;4988127;28;20067;-86
2023/09/06 11:09:43;;;;;;;3.33;0.90;;;30.40;91.80;;;;;;4995601;28;20044;-82
2023/09/06 11:12:13;;;;;;;1.58;0.80;;;30.40;91.30;;;;;;5006520;28;20037;-88
2023/09/06 11:14:40;;;;;;;4.75;0.95;;;30.40;91.40;;;;;;4992834;28;20037;-91
2023/09/06 11:17:06;;;;;;;2.42;0.82;;;30.40;91.40;;;;;;4999126;28;20048;-83
2023/09/06 11:19:35;;;;;;;2.45;0.82;;;30.50;90.90;;;;;;5005767;28;20037;-85
2023/09/06 11:22:09;;;;;;;2.60;0.80;;;30.50;90.90;;;;;;5004025;28;20148;-83
2023/09/06 11:24:36;;;;;;;3.33;1.05;;;30.50;90.50;;;;;;4989786;28;20071;-84
2023/09/06 11:27:24;;;;;;;2.55;0.90;;;30.50;90.30;;;;;;4996930;28;20487;-86
2023/09/06 11:30:09;;;;;;;2.15;0.95;;;30.50;89.10;;;;;;5010379;28;20595;-82
2023/09/06 11:32:36;;;;;;;1.00;0.70;;;30.40;89.50;;;;;;5004481;28;20033;-87
2023/09/06 11:35:05;;;;;;;1.20;0.70;;;30.40;90.10;;;;;;4986175;28;20037;-89
2023/09/06 11:37:31;;;;;;;1.73;0.70;;;30.50;90.60;;;;;;5004189;28;20095;-85
2023/09/06 11:39:59;;;;;;;1.25;0.63;;;30.50;90.10;;;;;;4993295;28;20056;-92
2023/09/06 11:42:30;;;;;;;2.38;0.90;;;30.50;90.30;;;;;;4996821;28;20099;-86
2023/09/06 11:44:58;;;;;;;3.53;0.90;;;30.60;90.60;;;;;;4994283;28;20045;-85
2023/09/06 11:47:27;;;;;;;1.92;1.02;;;30.50;90.40;;;;;;5009612;28;20120;-86
2023/09/06 11:49:55;;;;;;;2.35;0.80;;;30.50;89.90;;;;;;5003459;28;20045;-86
2023/09/06 11:52:23;;;;;;;1.50;0.77;;;30.50;90.00;;;;;;4997847;28;20037;-84
2023/09/06 11:54:50;;;;;;;1.17;0.70;;;30.40;90.10;;;;;;5006785;28;20497;-83
2023/09/06 11:57:30;;;;;;;1.20;0.70;;;30.50;90.90;;;;;;4998507;28;20484;-85
2023/09/06 12:00:00;;;;;;;1.50;0.75;;;30.40;90.70;;;;;;5009849;28;20053;-88
2023/09/06 12:02:34;;;;;;;1.38;0.98;;;30.40;89.60;;;;;;4978246;28;20056;-83
2023/09/06 12:05:03;;;;;;;4.68;1.00;;;30.40;88.80;;;;;;5023302;28;20044;-83
2023/09/06 12:07:30;;;;;;;1.80;0.77;;;30.30;89.40;;;;;;5008623;28;20120;-83
2023/09/06 12:09:57;;;;;;;1.45;0.82;;;30.30;88.60;;;;;;5023460;28;20068;-84
2023/09/06 12:12:26;;;;;;;1.65;0.80;;;30.30;88.30;;;;;;4977616;28;20307;-84
2023/09/06 12:14:52;;;;;;;2.10;0.70;;;30.20;87.90;;;;;;4993333;28;20094;-82
2023/09/06 12:17:19;;;;;;;1.27;0.90;;;30.20;88.50;;;;;;4990714;28;20120;-84
2023/09/06 12:19:46;;;;;;;1.17;0.85;;;30.30;90.10;;;;;;4992775;28;20107;-86
2023/09/06 12:22:17;;;;;;;;;;;30.20;88.20;;;;;;4993923;28;20132;-84
2023/09/06 12:24:47;;;;;;;1.77;0.70;;;30.20;88.40;;;;;;5009940;28;20413;-86
2023/09/06 12:27:15;;;;;;;1.08;0.57;;;30.20;88.50;;;;;;4974136;28;20301;-84
2023/09/06 12:29:42;;;;;;;1.83;0.75;;;30.20;90.00;;;;;;5008417;28;20045;-83
2023/09/06 12:32:08;;;;;;;2.88;1.13;;;30.20;89.60;;;;;;4998863;28;20046;-90
2023/09/06 12:34:34;;;;;;;2.58;0.77;;;30.20;90.10;;;;;;5050719;23;20057;-92
2023/09/06 12:36:59;;;;;;;3.15;0.90;;;30.20;90.10;;;;;;4992756;28;20059;-91
2023/09/06 12:39:25;;;;;;;2.03;0.60;;;30.20;90.20;;;;;;4963640;28;20052;-92
2023/09/06 12:41:57;;;;;;;1.63;0.85;;;30.20;90.20;;;;;;4993026;28;20057;-92
2023/09/06 12:44:23;;;;;;;4.80;0.90;;;30.10;89.60;;;;;;4997369;28;20042;-92
2023/09/06 12:46:49;;;;;;;1.40;0.77;;;30.10;88.90;;;;;;5018889;28;20073;-93
2023/09/06 12:49:14;;;;;;;3.38;0.73;;;30.20;89.00;;;;;;4993661;28;20060;-92
2023/09/06 12:51:44;;;;;;;2.22;0.90;;;30.20;89.40;;;;;;5000568;28;20046;-91
2023/09/06 12:54:10;;;;;;;1.08;0.80;;;30.20;89.70;;;;;;4988715;28;20042;-91
2023/09/06 12:56:38;;;;;;;1.10;0.80;;;30.20;90.00;;;;;;4995289;28;20032;-92